createdAt,value
2022-08-04T00:00:14.033Z,39.01
2022-08-04T00:03:01.623Z,38.44
2022-08-04T00:05:50.466Z,38.88
2022-08-04T00:08:27.345Z,39.90
2022-08-04T00:10:56.993Z,39.55
2022-08-04T00:13:27.368Z,39.09
2022-08-04T00:15:59.666Z,38.73
2022-08-04T00:18:35.020Z,39.81
2022-08-04T00:21:07.678Z,39.47
2022-08-04T00:24:11.868Z,39.36
2022-08-04T00:26:27.988Z,38.77
2022-08-04T00:28:58.054Z,39.01
2022-08-04T00:31:54.304Z,38.94
2022-08-04T00:34:16.377Z,38.47
2022-08-04T00:36:46.211Z,38.80
2022-08-04T00:39:15.586Z,38.08
2022-08-04T00:42:08.244Z,38.14
2022-08-04T00:44:45.314Z,38.68
2022-08-04T00:47:35.021Z,38.61
2022-08-04T00:50:09.184Z,38.36
2022-08-04T00:52:58.138Z,38.78
2022-08-04T00:55:43.354Z,38.61
2022-08-04T00:58:28.410Z,38.58
2022-08-04T01:01:02.568Z,39.27
2022-08-04T01:03:52.461Z,39.00
2022-08-04T01:06:36.191Z,38.08
2022-08-04T01:11:28.145Z,37.62
2022-08-04T01:14:17.776Z,37.09
2022-08-04T01:16:51.029Z,37.15
2022-08-04T01:19:49.078Z,37.20
2022-08-04T01:22:39.750Z,37.35
2022-08-04T01:25:30.791Z,38.11
2022-08-04T01:28:29.394Z,37.58
2022-08-04T01:31:08.357Z,38.09
2022-08-04T01:34:03.680Z,38.04
2022-08-04T01:36:35.681Z,38.27
2022-08-04T01:39:25.117Z,38.10
2022-08-04T01:41:58.115Z,38.40
2022-08-04T01:44:29.013Z,38.44
2022-08-04T01:46:58.752Z,38.87
2022-08-04T01:49:30.438Z,38.68
2022-08-04T01:52:12.520Z,38.68
2022-08-04T01:54:43.148Z,38.64
2022-08-04T01:57:36.729Z,38.85
2022-08-04T02:00:00.714Z,39.31
2022-08-04T02:02:30.470Z,39.41
2022-08-04T02:04:58.423Z,39.21
2022-08-04T02:07:50.492Z,39.66
2022-08-04T02:10:28.261Z,40.03
2022-08-04T02:13:10.461Z,40.34
2022-08-04T02:15:43.888Z,40.29
2022-08-04T02:18:20.900Z,40.56
2022-08-04T02:20:54.875Z,40.72
2022-08-04T02:23:31.629Z,40.67
2022-08-04T02:26:02.412Z,40.68
2022-08-04T02:28:35.980Z,41.00
2022-08-04T02:31:15.707Z,41.62
2022-08-04T02:33:47.221Z,41.65
2022-08-04T02:36:32.817Z,41.86
2022-08-04T02:39:02.426Z,41.81
2022-08-04T02:41:32.065Z,41.84
2022-08-04T02:44:01.771Z,41.93
2022-08-04T02:46:31.256Z,42.18
2022-08-04T02:49:04.303Z,42.03
2022-08-04T02:51:35.067Z,42.51
2022-08-04T02:54:05.909Z,42.41
2022-08-04T02:56:37.484Z,42.76
2022-08-04T02:59:08.449Z,42.70
2022-08-04T03:01:37.012Z,42.78
2022-08-04T03:04:24.366Z,43.16
2022-08-04T03:07:26.212Z,42.98
2022-08-04T03:10:28.626Z,43.16
2022-08-04T03:13:54.680Z,43.18
2022-08-04T03:17:09.125Z,43.18
2022-08-04T03:20:12.878Z,43.19
2022-08-04T03:23:14.243Z,43.52
2022-08-04T03:26:21.026Z,43.44
2022-08-04T03:29:15.025Z,43.69
2022-08-04T03:32:30.287Z,43.90
2022-08-04T03:35:13.498Z,44.48
2022-08-04T03:38:10.254Z,44.17
2022-08-04T03:41:05.445Z,44.46
2022-08-04T03:44:19.387Z,44.01
2022-08-04T03:47:19.441Z,44.30
2022-08-04T03:49:58.759Z,44.04
2022-08-04T03:53:11.140Z,44.25
2022-08-04T03:56:11.880Z,44.58
2022-08-04T03:59:20.599Z,44.68
2022-08-04T04:02:24.729Z,44.56
2022-08-04T04:05:14.542Z,44.46
2022-08-04T04:08:19.436Z,44.84
2022-08-04T04:11:21.045Z,45.03
2022-08-04T04:14:09.549Z,45.39
2022-08-04T04:16:42.274Z,45.22
2022-08-04T04:19:28.286Z,45.34
2022-08-04T04:22:33.152Z,45.82
2022-08-04T04:25:20.568Z,45.62
2022-08-04T04:28:43.525Z,46.13
2022-08-04T04:31:11.476Z,45.95
2022-08-04T04:33:52.944Z,46.05
2022-08-04T04:36:29.945Z,46.11
2022-08-04T04:39:20.340Z,46.04
2022-08-04T04:42:18.376Z,45.98
2022-08-04T04:45:05.251Z,46.53
2022-08-04T04:48:08.711Z,46.22
2022-08-04T04:50:48.386Z,46.70
2022-08-04T04:53:25.546Z,46.43
2022-08-04T04:56:02.072Z,46.58
2022-08-04T04:58:34.320Z,46.83
2022-08-04T05:01:25.955Z,46.04
2022-08-04T05:04:21.563Z,46.83
2022-08-04T05:07:10.829Z,46.24
2022-08-04T05:09:53.560Z,46.80
2022-08-04T05:12:44.904Z,46.10
2022-08-04T05:15:30.467Z,46.05
2022-08-04T05:18:02.280Z,45.89
2022-08-04T05:20:36.209Z,45.63
2022-08-04T05:23:10.194Z,45.49
2022-08-04T05:25:50.094Z,45.66
2022-08-04T05:28:32.714Z,45.66
2022-08-04T05:31:05.472Z,45.25
2022-08-04T05:33:42.821Z,45.01
2022-08-04T05:36:20.598Z,44.69
2022-08-04T05:38:53.788Z,44.42
2022-08-04T05:41:23.536Z,44.37
2022-08-04T05:44:02.426Z,43.94
2022-08-04T05:46:32.526Z,43.90
2022-08-04T05:49:00.569Z,43.47
2022-08-04T05:51:31.062Z,43.18
2022-08-04T05:54:00.116Z,43.10
2022-08-04T05:56:29.427Z,42.64
2022-08-04T05:58:58.167Z,42.80
2022-08-04T06:01:27.350Z,41.95
2022-08-04T06:03:58.463Z,41.96
2022-08-04T06:06:28.034Z,41.74
2022-08-04T06:08:57.349Z,41.72
2022-08-04T06:11:29.198Z,41.34
2022-08-04T06:13:59.917Z,41.04
2022-08-04T06:16:36.181Z,40.99
2022-08-04T06:20:00.536Z,40.16
2022-08-04T06:22:00.116Z,39.69
2022-08-04T06:24:31.313Z,39.48
2022-08-04T06:27:00.950Z,39.76
2022-08-04T06:29:34.643Z,39.63
2022-08-04T06:32:28.475Z,38.30
2022-08-04T06:35:03.629Z,38.32
2022-08-04T06:37:42.629Z,37.67
2022-08-04T06:40:30.535Z,37.50
2022-08-04T06:43:01.854Z,37.86
2022-08-04T06:45:30.717Z,37.26
2022-08-04T06:48:01.120Z,36.84
2022-08-04T06:51:25.533Z,36.59
2022-08-04T06:53:20.098Z,35.62
2022-08-04T06:55:50.443Z,35.04
2022-08-04T06:58:20.408Z,34.77
2022-08-04T07:00:52.752Z,34.88
2022-08-04T07:03:21.966Z,34.77
2022-08-04T07:05:52.945Z,34.65
2022-08-04T07:08:21.849Z,34.29
2022-08-04T07:10:50.479Z,33.45
2022-08-04T07:13:20.230Z,33.54
2022-08-04T07:15:49.734Z,33.17
2022-08-04T07:18:17.848Z,32.45
2022-08-04T07:20:47.127Z,32.27
2022-08-04T07:23:19.980Z,31.85
2022-08-04T07:26:12.052Z,31.29
2022-08-04T07:28:42.272Z,31.36
2022-08-04T07:31:31.959Z,30.72
2022-08-04T07:34:20.551Z,29.92
2022-08-04T07:36:53.268Z,29.87
2022-08-04T07:39:28.451Z,29.65
2022-08-04T07:41:59.113Z,29.03
2022-08-04T07:44:29.395Z,28.08
2022-08-04T07:46:57.564Z,28.84
2022-08-04T07:49:55.101Z,28.69
2022-08-04T07:52:15.064Z,28.52
2022-08-04T07:54:44.910Z,27.34
2022-08-04T07:57:19.519Z,27.63
2022-08-04T08:00:03.689Z,26.76
2022-08-04T08:02:32.360Z,25.83
2022-08-04T08:05:00.574Z,23.84
2022-08-04T08:07:29.016Z,22.11
2022-08-04T08:09:58.307Z,20.41
2022-08-04T08:12:37.643Z,17.97
2022-08-04T08:15:15.872Z,17.13
2022-08-04T08:17:58.836Z,15.82
2022-08-04T08:20:34.417Z,15.35
2022-08-04T08:23:03.360Z,13.52
2022-08-04T08:25:34.266Z,13.46
2022-08-04T08:28:05.118Z,12.82
2022-08-04T08:30:34.263Z,12.56
2022-08-04T08:33:05.718Z,11.85
2022-08-04T08:35:53.876Z,11.73
2022-08-04T08:38:35.008Z,11.20
2022-08-04T08:41:25.255Z,10.76
2022-08-04T08:44:38.033Z,10.67
2022-08-04T08:47:10.973Z,9.47
2022-08-04T08:50:04.060Z,9.39
2022-08-04T08:53:01.905Z,9.18
2022-08-04T08:55:41.834Z,8.81
2022-08-04T08:58:24.669Z,8.51
2022-08-04T09:00:58.138Z,8.30
2022-08-04T09:03:47.932Z,8.51
2022-08-04T09:06:39.067Z,9.07
2022-08-04T09:09:30.811Z,7.82
2022-08-04T09:12:08.347Z,7.59
2022-08-04T09:14:46.493Z,6.81
2022-08-04T09:17:23.855Z,7.98
2022-08-04T09:19:59.170Z,6.98
2022-08-04T09:22:34.966Z,6.74
2022-08-04T09:25:08.893Z,6.95
2022-08-04T09:27:47.279Z,6.65
2022-08-04T09:30:20.293Z,7.04
2022-08-04T09:33:05.599Z,7.18
2022-08-04T09:35:44.096Z,6.51
2022-08-04T09:38:20.560Z,6.46
2022-08-04T09:40:57.227Z,7.29
2022-08-04T09:44:42.717Z,7.50
2022-08-04T09:46:40.752Z,7.59
2022-08-04T09:49:16.129Z,7.11
2022-08-04T09:52:04.212Z,7.22
2022-08-04T09:54:44.954Z,7.24
2022-08-04T09:57:22.825Z,7.53
2022-08-04T09:59:58.348Z,7.84
2022-08-04T10:02:33.358Z,8.61
2022-08-04T10:05:04.837Z,8.82
2022-08-04T10:07:59.668Z,8.23
2022-08-04T10:10:56.987Z,8.39
2022-08-04T10:13:40.848Z,8.66
2022-08-04T10:16:34.120Z,8.51
2022-08-04T10:19:21.941Z,8.97
2022-08-04T10:22:28.495Z,8.81
2022-08-04T10:25:04.630Z,9.36
2022-08-04T10:27:37.821Z,8.79
2022-08-04T10:30:12.342Z,9.13
2022-08-04T10:32:46.625Z,9.04
2022-08-04T10:35:18.685Z,9.17
2022-08-04T10:38:04.098Z,9.15
2022-08-04T10:40:40.926Z,8.38
2022-08-04T10:43:22.019Z,8.33
2022-08-04T10:45:57.941Z,8.58
2022-08-04T10:48:35.266Z,8.59
2022-08-04T10:51:22.411Z,9.21
2022-08-04T10:53:57.045Z,9.14
2022-08-04T10:56:33.662Z,9.35
2022-08-04T10:59:05.254Z,10.27
2022-08-04T11:02:01.914Z,10.01
2022-08-04T11:04:32.865Z,9.51
2022-08-04T11:07:02.344Z,9.06
2022-08-04T11:09:33.020Z,8.42
2022-08-04T11:12:08.404Z,8.78
2022-08-04T11:14:41.258Z,9.67
2022-08-04T11:17:16.112Z,9.97
2022-08-04T11:19:53.433Z,10.16
2022-08-04T11:22:28.001Z,10.41
2022-08-04T11:25:07.296Z,10.77
2022-08-04T11:27:38.960Z,10.48
2022-08-04T11:30:09.946Z,11.38
2022-08-04T11:32:47.463Z,10.67
2022-08-04T11:35:24.707Z,10.66
2022-08-04T11:38:02.882Z,10.48
2022-08-04T11:40:37.680Z,10.57
2022-08-04T11:43:13.725Z,11.56
2022-08-04T11:45:48.620Z,12.14
2022-08-04T11:48:21.099Z,12.95
2022-08-04T11:50:54.018Z,13.41
2022-08-04T11:53:29.117Z,14.13
2022-08-04T11:56:11.058Z,14.55
2022-08-04T11:58:40.090Z,14.45
2022-08-04T12:01:21.760Z,14.26
2022-08-04T12:04:04.231Z,13.75
2022-08-04T12:06:42.291Z,12.80
2022-08-04T12:09:33.543Z,12.41
2022-08-04T12:12:12.373Z,12.72
2022-08-04T12:14:48.343Z,12.61
2022-08-04T12:17:26.491Z,12.24
2022-08-04T12:20:18.213Z,12.47
2022-08-04T12:22:57.346Z,10.56
2022-08-04T12:25:34.589Z,10.58
2022-08-04T12:28:07.405Z,11.11
2022-08-04T12:30:59.111Z,10.89
2022-08-04T12:34:02.878Z,11.93
2022-08-04T12:36:30.682Z,11.75
2022-08-04T12:39:02.555Z,12.28
2022-08-04T12:41:37.735Z,12.27
2022-08-04T12:44:11.256Z,12.33
2022-08-04T12:47:27.588Z,12.36
2022-08-04T12:50:01.018Z,14.47
2022-08-04T12:55:21.499Z,15.59
2022-08-04T12:57:53.504Z,16.49
2022-08-04T13:00:31.001Z,16.81
2022-08-04T13:03:09.651Z,16.57
2022-08-04T13:05:40.904Z,15.96
2022-08-04T13:08:09.883Z,13.00
2022-08-04T13:10:40.693Z,11.90
2022-08-04T13:13:17.381Z,10.37
2022-08-04T13:15:56.510Z,8.84
2022-08-04T13:18:29.564Z,8.72
2022-08-04T13:21:19.321Z,7.68
2022-08-04T13:24:09.874Z,7.06
2022-08-04T13:26:54.627Z,7.43
2022-08-04T13:29:59.805Z,7.93
2022-08-04T13:32:22.416Z,8.52
2022-08-04T13:34:53.885Z,8.86
2022-08-04T13:37:25.476Z,8.37
2022-08-04T13:39:55.279Z,9.03
2022-08-04T13:42:27.051Z,9.23
2022-08-04T13:45:00.865Z,9.54
2022-08-04T13:47:33.776Z,10.92
2022-08-04T13:50:12.956Z,12.25
2022-08-04T13:52:42.275Z,13.18
2022-08-04T13:55:24.399Z,13.56
2022-08-04T13:57:57.116Z,13.08
2022-08-04T14:00:29.952Z,14.30
2022-08-04T14:03:03.517Z,14.26
2022-08-04T14:06:09.388Z,14.19
2022-08-04T14:08:44.845Z,13.97
2022-08-04T14:12:06.102Z,13.08
2022-08-04T14:14:01.961Z,13.27
2022-08-04T14:16:31.227Z,13.02
2022-08-04T14:19:02.467Z,14.09
2022-08-04T14:21:37.445Z,14.22
2022-08-04T14:24:06.314Z,13.28
2022-08-04T14:26:37.489Z,13.18
2022-08-04T14:29:26.621Z,13.74
2022-08-04T14:32:06.196Z,14.46
2022-08-04T14:34:41.819Z,14.00
2022-08-04T14:37:16.982Z,13.77
2022-08-04T14:40:08.230Z,13.79
2022-08-04T14:42:53.787Z,14.37
2022-08-04T14:45:33.140Z,14.43
2022-08-04T14:48:03.228Z,13.28
2022-08-04T14:50:36.878Z,12.38
2022-08-04T14:53:08.082Z,11.25
2022-08-04T14:55:40.038Z,10.12
2022-08-04T14:58:35.477Z,9.48
2022-08-04T15:00:58.649Z,8.25
2022-08-04T15:03:29.641Z,9.39
2022-08-04T15:06:02.652Z,10.33
2022-08-04T15:08:35.423Z,11.45
2022-08-04T15:11:03.868Z,12.03
2022-08-04T15:13:33.417Z,12.73
2022-08-04T15:16:06.710Z,12.07
2022-08-04T15:18:39.092Z,11.07
2022-08-04T15:21:08.545Z,10.35
2022-08-04T15:23:39.257Z,10.13
2022-08-04T15:26:14.069Z,9.86
2022-08-04T15:28:48.371Z,9.91
2022-08-04T15:32:06.536Z,10.06
2022-08-04T15:34:09.818Z,10.92
2022-08-04T15:36:45.737Z,11.49
2022-08-04T15:39:38.746Z,12.41
2022-08-04T15:42:21.025Z,13.62
2022-08-04T15:45:15.767Z,14.64
2022-08-04T15:47:53.554Z,14.01
2022-08-04T15:50:28.152Z,14.46
2022-08-04T15:53:10.411Z,14.74
2022-08-04T15:55:43.005Z,15.73
2022-08-04T15:58:12.540Z,15.39
2022-08-04T16:01:17.879Z,15.04
2022-08-04T16:03:58.391Z,15.12
2022-08-04T16:06:46.043Z,15.43
2022-08-04T16:09:46.371Z,15.82
2022-08-04T16:12:58.147Z,16.06
2022-08-04T16:15:40.988Z,16.42
2022-08-04T16:18:14.482Z,16.56
2022-08-04T16:20:56.315Z,16.29
2022-08-04T16:23:55.207Z,16.01
2022-08-04T16:26:54.370Z,16.50
2022-08-04T16:29:42.270Z,16.15
2022-08-04T16:32:15.658Z,15.84
2022-08-04T16:34:54.226Z,16.22
2022-08-04T16:37:25.745Z,16.49
2022-08-04T16:40:35.913Z,17.01
2022-08-04T16:43:13.223Z,16.55
2022-08-04T16:45:50.361Z,17.36
2022-08-04T16:48:20.131Z,16.63
2022-08-04T16:51:04.898Z,17.22
2022-08-04T16:54:03.172Z,16.92
2022-08-04T16:56:33.210Z,16.86
2022-08-04T16:59:07.589Z,17.59
2022-08-04T17:01:35.876Z,17.26
2022-08-04T17:04:08.565Z,17.76
2022-08-04T17:06:38.719Z,17.89
2022-08-04T17:09:12.656Z,18.38
2022-08-04T17:11:42.972Z,18.27
2022-08-04T17:14:11.249Z,18.93
2022-08-04T17:16:43.314Z,18.22
2022-08-04T17:19:23.991Z,18.72
2022-08-04T17:22:05.019Z,19.14
2022-08-04T17:24:35.346Z,18.80
2022-08-04T17:29:53.743Z,18.76
2022-08-04T17:32:23.594Z,19.31
2022-08-04T17:34:54.192Z,19.19
2022-08-04T17:37:53.103Z,19.65
2022-08-04T17:40:18.525Z,19.05
2022-08-04T17:44:04.679Z,20.35
2022-08-04T17:46:28.772Z,20.16
2022-08-04T17:49:02.987Z,20.26
2022-08-04T17:52:06.072Z,21.01
2022-08-04T17:54:40.027Z,20.74
2022-08-04T17:57:19.449Z,21.41
2022-08-04T17:59:57.899Z,21.25
2022-08-04T18:02:32.646Z,21.32
2022-08-04T18:05:07.641Z,21.44
2022-08-04T18:08:38.137Z,22.00
2022-08-04T18:13:42.734Z,21.80
2022-08-04T18:16:22.187Z,22.60
2022-08-04T18:19:08.893Z,22.69
2022-08-04T18:21:46.024Z,22.36
2022-08-04T18:24:34.714Z,22.86
2022-08-04T18:27:14.544Z,23.61
2022-08-04T18:29:56.422Z,23.13
2022-08-04T18:32:33.450Z,24.29
2022-08-04T18:35:05.206Z,24.46
2022-08-04T18:38:05.897Z,24.28
2022-08-04T18:40:29.891Z,23.92
2022-08-04T18:43:03.530Z,24.05
2022-08-04T18:45:34.330Z,25.00
2022-08-04T18:48:03.975Z,25.23
2022-08-04T18:51:10.182Z,26.07
2022-08-04T18:53:35.824Z,25.85
2022-08-04T18:56:06.223Z,25.63
2022-08-04T18:58:45.293Z,26.19
2022-08-04T19:01:14.824Z,26.34
2022-08-04T19:03:44.131Z,25.88
2022-08-04T19:06:15.825Z,26.12
2022-08-04T19:08:45.215Z,26.58
2022-08-04T19:11:37.396Z,27.20
2022-08-04T19:14:03.710Z,27.90
2022-08-04T19:16:34.938Z,28.32
2022-08-04T19:19:05.606Z,28.75
2022-08-04T19:22:00.873Z,28.12
2022-08-04T19:24:32.094Z,28.49
2022-08-04T19:27:06.998Z,28.84
2022-08-04T19:29:41.123Z,28.90
2022-08-04T19:32:15.839Z,29.19
2022-08-04T19:34:48.454Z,29.23
2022-08-04T19:37:56.047Z,27.93
2022-08-04T19:40:09.550Z,27.96
2022-08-04T19:42:37.823Z,27.62
2022-08-04T19:45:08.989Z,29.06
2022-08-04T19:50:33.939Z,28.82
2022-08-04T19:53:01.855Z,29.44
2022-08-04T19:55:44.418Z,28.57
2022-08-04T19:58:19.824Z,28.82
2022-08-04T20:00:51.309Z,29.21
2022-08-04T20:03:21.159Z,28.95
2022-08-04T20:05:53.461Z,29.14
2022-08-04T20:08:25.116Z,29.67
2022-08-04T20:10:54.886Z,29.73
2022-08-04T20:13:25.290Z,30.51
2022-08-04T20:16:26.198Z,31.12
2022-08-04T20:19:00.783Z,31.08
2022-08-04T20:21:54.261Z,30.62
2022-08-04T20:24:36.570Z,31.00
2022-08-04T20:27:11.608Z,31.40
2022-08-04T20:29:46.252Z,31.62
2022-08-04T20:32:17.204Z,31.78
2022-08-04T20:34:49.509Z,32.21
2022-08-04T20:37:19.513Z,31.69
2022-08-04T20:39:54.397Z,31.97
2022-08-04T20:42:27.899Z,31.92
2022-08-04T20:45:02.617Z,30.41
2022-08-04T20:47:35.629Z,30.79
2022-08-04T20:50:09.109Z,31.71
2022-08-04T20:52:38.037Z,30.94
2022-08-04T20:55:07.427Z,30.59
2022-08-04T21:00:29.743Z,30.68
2022-08-04T21:02:58.121Z,30.80
2022-08-04T21:05:27.616Z,31.10
2022-08-04T21:07:57.141Z,32.06
2022-08-04T21:10:25.920Z,32.64
2022-08-04T21:12:54.531Z,33.94
2022-08-04T21:15:25.642Z,34.12
2022-08-04T21:17:58.042Z,33.19
2022-08-04T21:20:34.537Z,32.47
2022-08-04T21:23:03.692Z,32.77
2022-08-04T21:25:33.076Z,32.39
2022-08-04T21:28:11.877Z,32.80
2022-08-04T21:30:54.138Z,32.42
2022-08-04T21:33:44.717Z,33.04
2022-08-04T21:36:19.560Z,33.74
2022-08-04T21:38:51.970Z,33.53
2022-08-04T21:41:24.848Z,34.14
2022-08-04T21:43:55.492Z,34.84
2022-08-04T21:46:23.477Z,35.21
2022-08-04T21:48:51.707Z,35.60
2022-08-04T21:51:57.896Z,35.14
2022-08-04T21:54:15.015Z,35.07
2022-08-04T21:56:50.900Z,35.70
2022-08-04T21:59:23.378Z,34.16
2022-08-04T22:01:56.363Z,34.26
2022-08-04T22:04:24.617Z,34.01
2022-08-04T22:06:53.847Z,34.30
2022-08-04T22:09:22.381Z,34.33
2022-08-04T22:11:51.712Z,34.90
2022-08-04T22:14:29.180Z,33.94
2022-08-04T22:17:02.725Z,34.23
2022-08-04T22:19:40.970Z,34.39
2022-08-04T22:22:24.410Z,34.09
2022-08-04T22:24:54.293Z,34.52
2022-08-04T22:27:36.245Z,34.11
2022-08-04T22:30:10.538Z,34.36
2022-08-04T22:32:45.031Z,34.29
2022-08-04T22:35:35.782Z,34.44
2022-08-04T22:38:06.978Z,34.49
2022-08-04T22:40:49.937Z,34.50
2022-08-04T22:43:31.440Z,34.30
2022-08-04T22:46:02.061Z,34.64
2022-08-04T22:48:32.567Z,35.08
2022-08-04T22:51:00.795Z,34.81
2022-08-04T22:53:30.138Z,34.96
2022-08-04T22:56:09.974Z,34.96
2022-08-04T22:58:40.787Z,34.75
2022-08-04T23:01:15.115Z,34.70
2022-08-04T23:03:55.137Z,34.69
2022-08-04T23:06:28.689Z,34.72
2022-08-04T23:08:59.426Z,34.86
2022-08-04T23:11:34.768Z,34.95
2022-08-04T23:14:04.065Z,34.75
2022-08-04T23:16:32.472Z,34.52
2022-08-04T23:19:00.916Z,34.49
2022-08-04T23:21:40.714Z,34.55
2022-08-04T23:24:11.145Z,34.66
2022-08-04T23:26:41.708Z,34.64
2022-08-04T23:29:09.752Z,34.54
2022-08-04T23:31:40.909Z,34.55
2022-08-04T23:34:12.289Z,34.48
2022-08-04T23:36:40.985Z,34.82
2022-08-04T23:39:12.002Z,35.04
2022-08-04T23:41:53.841Z,36.06
2022-08-04T23:44:25.436Z,35.42
2022-08-04T23:46:59.132Z,35.40
2022-08-04T23:49:40.771Z,35.51
2022-08-04T23:52:23.509Z,35.71
2022-08-04T23:54:59.413Z,36.41
2022-08-04T23:57:31.623Z,36.43
